createdAt,value
2023-03-17T00:00:39.271Z,100.00
2023-03-17T00:03:22.268Z,100.00
2023-03-17T00:05:50.264Z,100.00
2023-03-17T00:08:23.175Z,100.00
2023-03-17T00:10:51.779Z,100.00
2023-03-17T00:13:19.714Z,100.00
2023-03-17T00:15:52.352Z,100.00
2023-03-17T00:18:20.540Z,100.00
2023-03-17T00:20:48.907Z,100.00
2023-03-17T00:23:24.458Z,100.00
2023-03-17T00:25:54.374Z,100.00
2023-03-17T00:28:24.121Z,100.00
2023-03-17T00:30:56.506Z,100.00
2023-03-17T00:33:26.834Z,100.00
2023-03-17T00:35:55.323Z,100.00
2023-03-17T00:38:24.481Z,100.00
2023-03-17T00:40:52.389Z,100.00
2023-03-17T00:43:23.259Z,100.00
2023-03-17T00:45:51.516Z,100.00
2023-03-17T00:48:20.847Z,100.00
2023-03-17T00:50:49.799Z,100.00
2023-03-17T00:53:19.650Z,100.00
2023-03-17T00:55:48.044Z,100.00
2023-03-17T00:58:19.290Z,100.00
2023-03-17T01:00:47.553Z,100.00
2023-03-17T01:03:15.668Z,100.00
2023-03-17T01:05:43.554Z,100.00
2023-03-17T01:08:12.070Z,100.00
2023-03-17T01:10:42.796Z,100.00
2023-03-17T01:13:12.365Z,100.00
2023-03-17T01:15:44.519Z,100.00
2023-03-17T01:18:14.646Z,100.00
2023-03-17T01:20:42.799Z,100.00
2023-03-17T01:23:10.879Z,100.00
2023-03-17T01:25:53.291Z,100.00
2023-03-17T01:28:32.040Z,100.00
2023-03-17T01:31:00.637Z,100.00
2023-03-17T01:33:29.136Z,100.00
2023-03-17T01:35:56.888Z,100.00
2023-03-17T01:38:24.777Z,100.00
2023-03-17T01:40:53.688Z,100.00
2023-03-17T01:43:23.886Z,100.00
2023-03-17T01:46:22.804Z,100.00
2023-03-17T01:49:15.719Z,100.00
2023-03-17T01:51:52.666Z,100.00
2023-03-17T01:54:37.319Z,100.00
2023-03-17T01:57:10.764Z,100.00
2023-03-17T01:59:42.369Z,100.00
2023-03-17T02:02:11.196Z,100.00
2023-03-17T02:04:40.377Z,100.00
2023-03-17T02:07:08.451Z,100.00
2023-03-17T02:09:38.719Z,100.00
2023-03-17T02:12:07.057Z,100.00
2023-03-17T02:14:36.644Z,100.00
2023-03-17T02:17:04.590Z,100.00
2023-03-17T02:19:32.447Z,100.00
2023-03-17T02:22:00.372Z,100.00
2023-03-17T02:24:31.011Z,100.00
2023-03-17T02:27:03.738Z,100.00
2023-03-17T02:29:34.180Z,100.00
2023-03-17T02:32:02.759Z,100.00
2023-03-17T02:34:31.845Z,100.00
2023-03-17T02:36:59.770Z,100.00
2023-03-17T02:39:28.092Z,100.00
2023-03-17T02:41:56.052Z,100.00
2023-03-17T02:44:24.040Z,100.00
2023-03-17T02:46:54.450Z,100.00
2023-03-17T02:49:22.817Z,100.00
2023-03-17T02:51:50.748Z,100.00
2023-03-17T02:54:19.395Z,100.00
2023-03-17T02:56:47.166Z,100.00
2023-03-17T02:59:14.976Z,100.00
2023-03-17T03:01:44.070Z,100.00
2023-03-17T03:04:12.041Z,100.00
2023-03-17T03:06:42.762Z,100.00
2023-03-17T03:09:11.926Z,100.00
2023-03-17T03:11:39.862Z,100.00
2023-03-17T03:14:08.229Z,100.00
2023-03-17T03:16:36.147Z,100.00
2023-03-17T03:19:04.606Z,100.00
2023-03-17T03:21:32.601Z,100.00
2023-03-17T03:24:00.388Z,100.00
2023-03-17T03:26:28.470Z,100.00
2023-03-17T03:28:58.517Z,100.00
2023-03-17T03:31:26.816Z,100.00
2023-03-17T03:33:54.673Z,100.00
2023-03-17T03:36:22.623Z,100.00
2023-03-17T03:38:50.489Z,100.00
2023-03-17T03:41:18.378Z,100.00
2023-03-17T03:43:46.332Z,100.00
2023-03-17T03:46:15.723Z,100.00
2023-03-17T03:48:43.743Z,100.00
2023-03-17T03:51:11.562Z,100.00
2023-03-17T03:53:39.375Z,100.00
2023-03-17T03:56:07.618Z,100.00
2023-03-17T03:58:35.772Z,100.00
2023-03-17T04:01:05.374Z,100.00
2023-03-17T04:03:33.557Z,100.00
2023-03-17T04:06:01.397Z,100.00
2023-03-17T04:08:29.612Z,100.00
2023-03-17T04:10:58.009Z,100.00
2023-03-17T04:13:25.781Z,100.00
2023-03-17T04:15:53.627Z,100.00
2023-03-17T04:18:21.749Z,100.00
2023-03-17T04:20:49.579Z,100.00
2023-03-17T04:23:17.595Z,100.00
2023-03-17T04:25:46.101Z,100.00
2023-03-17T04:28:14.323Z,100.00
2023-03-17T04:30:42.564Z,100.00
2023-03-17T04:33:10.904Z,100.00
2023-03-17T04:35:38.950Z,100.00
2023-03-17T04:38:07.461Z,100.00
2023-03-17T04:40:35.838Z,100.00
2023-03-17T04:43:04.224Z,100.00
2023-03-17T04:45:32.770Z,100.00
2023-03-17T04:48:01.020Z,100.00
2023-03-17T04:50:29.702Z,100.00
2023-03-17T04:52:58.020Z,100.00
2023-03-17T04:55:26.227Z,100.00
2023-03-17T04:57:54.399Z,100.00
2023-03-17T05:00:25.837Z,100.00
2023-03-17T05:02:54.111Z,100.00
2023-03-17T05:05:22.280Z,100.00
2023-03-17T05:07:50.533Z,100.00
2023-03-17T05:10:18.761Z,100.00
2023-03-17T05:12:47.409Z,100.00
2023-03-17T05:15:16.034Z,100.00
2023-03-17T05:17:44.172Z,100.00
2023-03-17T05:20:12.784Z,100.00
2023-03-17T05:22:41.006Z,100.00
2023-03-17T05:25:09.325Z,100.00
2023-03-17T05:27:39.924Z,100.00
2023-03-17T05:30:09.599Z,100.00
2023-03-17T05:32:37.737Z,100.00
2023-03-17T05:35:06.281Z,100.00
2023-03-17T05:37:35.027Z,100.00
2023-03-17T05:40:03.603Z,100.00
2023-03-17T05:42:31.823Z,100.00
2023-03-17T05:45:00.193Z,100.00
2023-03-17T05:47:28.515Z,100.00
2023-03-17T05:49:57.104Z,100.00
2023-03-17T05:52:25.218Z,100.00
2023-03-17T05:54:53.660Z,100.00
2023-03-17T05:57:21.978Z,100.00
2023-03-17T05:59:51.142Z,100.00
2023-03-17T06:02:19.336Z,100.00
2023-03-17T06:04:47.451Z,100.00
2023-03-17T06:07:15.475Z,100.00
2023-03-17T06:09:43.602Z,100.00
2023-03-17T06:12:11.652Z,100.00
2023-03-17T06:14:39.857Z,100.00
2023-03-17T06:17:08.482Z,100.00
2023-03-17T06:19:36.619Z,100.00
2023-03-17T06:22:04.796Z,100.00
2023-03-17T06:24:33.502Z,100.00
2023-03-17T06:27:01.570Z,100.00
2023-03-17T06:29:30.220Z,100.00
2023-03-17T06:32:06.322Z,100.00
2023-03-17T06:34:45.445Z,100.00
2023-03-17T06:37:13.447Z,100.00
2023-03-17T06:39:42.456Z,100.00
2023-03-17T06:42:10.473Z,100.00
2023-03-17T06:44:38.688Z,100.00
2023-03-17T06:47:06.933Z,100.00
2023-03-17T06:49:34.982Z,100.00
2023-03-17T06:52:03.128Z,100.00
2023-03-17T06:54:31.779Z,100.00
2023-03-17T06:56:59.923Z,100.00
2023-03-17T06:59:28.137Z,100.00
2023-03-17T07:01:56.471Z,100.00
2023-03-17T07:04:24.545Z,100.00
2023-03-17T07:06:52.565Z,100.00
2023-03-17T07:09:21.036Z,100.00
2023-03-17T07:11:49.786Z,100.00
2023-03-17T07:14:18.834Z,100.00
2023-03-17T07:16:48.649Z,100.00
2023-03-17T07:19:16.862Z,100.00
2023-03-17T07:21:46.897Z,100.00
2023-03-17T07:24:15.399Z,100.00
2023-03-17T07:26:43.786Z,100.00
2023-03-17T07:29:11.849Z,100.00
2023-03-17T07:31:39.953Z,100.00
2023-03-17T07:34:08.005Z,100.00
2023-03-17T07:36:36.107Z,100.00
2023-03-17T07:39:04.243Z,100.00
2023-03-17T07:41:32.237Z,100.00
2023-03-17T07:44:00.776Z,100.00
2023-03-17T07:46:28.958Z,100.00
2023-03-17T07:48:57.032Z,100.00
2023-03-17T07:51:28.343Z,100.00
2023-03-17T07:54:03.896Z,100.00
2023-03-17T07:56:32.388Z,100.00
2023-03-17T07:59:00.429Z,100.00
2023-03-17T08:01:28.520Z,100.00
2023-03-17T08:03:56.757Z,100.00
2023-03-17T08:06:27.885Z,99.13
2023-03-17T08:08:55.932Z,99.39
2023-03-17T08:11:24.231Z,96.00
2023-03-17T08:13:53.626Z,98.57
2023-03-17T08:16:22.194Z,99.27
2023-03-17T08:18:50.178Z,97.81
2023-03-17T08:21:18.164Z,97.82
2023-03-17T08:23:47.463Z,99.57
2023-03-17T08:26:16.071Z,94.99
2023-03-17T08:28:44.997Z,91.76
2023-03-17T08:31:15.449Z,90.35
2023-03-17T08:33:46.256Z,86.48
2023-03-17T08:36:18.032Z,78.91
2023-03-17T08:38:46.760Z,71.54
2023-03-17T08:41:17.072Z,68.25
2023-03-17T08:43:45.563Z,65.09
2023-03-17T08:46:22.185Z,64.92
2023-03-17T08:48:51.241Z,65.48
2023-03-17T08:51:22.084Z,62.21
2023-03-17T08:53:52.081Z,62.72
2023-03-17T08:56:20.121Z,62.07
2023-03-17T08:58:48.390Z,59.82
2023-03-17T09:01:16.762Z,59.48
2023-03-17T09:03:45.723Z,57.33
2023-03-17T09:06:13.789Z,58.58
2023-03-17T09:08:45.203Z,55.89
2023-03-17T09:11:18.075Z,54.90
2023-03-17T09:13:46.618Z,53.80
2023-03-17T09:16:14.915Z,53.86
2023-03-17T09:18:43.202Z,52.04
2023-03-17T09:21:12.154Z,52.49
2023-03-17T09:23:40.330Z,50.43
2023-03-17T09:26:09.220Z,49.79
2023-03-17T09:28:37.480Z,50.08
2023-03-17T09:31:06.401Z,45.71
2023-03-17T09:33:34.727Z,46.47
2023-03-17T09:36:02.742Z,45.43
2023-03-17T09:38:31.959Z,44.39
2023-03-17T09:41:02.641Z,44.97
2023-03-17T09:43:52.755Z,43.72
2023-03-17T09:46:23.659Z,43.47
2023-03-17T09:49:12.702Z,42.81
2023-03-17T09:51:40.842Z,42.50
2023-03-17T09:54:22.046Z,41.78
2023-03-17T09:56:54.062Z,41.76
2023-03-17T09:59:22.067Z,40.14
2023-03-17T10:01:50.421Z,39.78
2023-03-17T10:04:18.984Z,39.92
2023-03-17T10:06:48.446Z,40.68
2023-03-17T10:09:42.870Z,40.85
2023-03-17T10:12:32.459Z,41.22
2023-03-17T10:15:06.901Z,40.73
2023-03-17T10:17:35.846Z,40.78
2023-03-17T10:20:17.987Z,40.65
2023-03-17T10:22:50.465Z,40.13
2023-03-17T10:25:22.361Z,39.77
2023-03-17T10:27:57.801Z,40.13
2023-03-17T10:30:26.176Z,41.16
2023-03-17T10:32:56.321Z,40.06
2023-03-17T10:35:24.641Z,37.54
2023-03-17T10:38:04.394Z,37.39
2023-03-17T10:40:40.587Z,37.61
2023-03-17T10:43:14.434Z,36.96
2023-03-17T10:45:47.949Z,36.24
2023-03-17T10:48:19.305Z,35.48
2023-03-17T10:50:49.296Z,35.39
2023-03-17T10:53:19.681Z,36.08
2023-03-17T10:55:52.056Z,36.08
2023-03-17T10:58:22.633Z,35.60
2023-03-17T11:01:00.167Z,35.72
2023-03-17T11:03:30.126Z,36.24
2023-03-17T11:06:02.457Z,36.76
2023-03-17T11:08:41.716Z,36.15
2023-03-17T11:11:21.354Z,36.71
2023-03-17T11:13:49.380Z,36.68
2023-03-17T11:16:22.543Z,35.95
2023-03-17T11:18:58.046Z,36.83
2023-03-17T11:21:52.383Z,37.41
2023-03-17T11:24:25.385Z,37.41
2023-03-17T11:27:17.982Z,37.48
2023-03-17T11:30:17.566Z,37.23
2023-03-17T11:32:48.111Z,37.40
2023-03-17T11:35:25.178Z,37.82
2023-03-17T11:38:21.075Z,37.39
2023-03-17T11:41:05.054Z,37.46
2023-03-17T11:43:44.061Z,37.51
2023-03-17T11:46:44.426Z,38.10
2023-03-17T11:49:24.349Z,37.25
2023-03-17T11:52:12.408Z,37.39
2023-03-17T11:54:54.368Z,37.13
2023-03-17T11:57:25.495Z,36.22
2023-03-17T12:00:00.051Z,35.89
2023-03-17T12:02:30.984Z,35.35
2023-03-17T12:05:10.961Z,35.19
2023-03-17T12:07:58.370Z,34.39
2023-03-17T12:10:35.008Z,34.99
2023-03-17T12:13:07.580Z,35.82
2023-03-17T12:15:43.719Z,34.70
2023-03-17T12:18:16.197Z,34.68
2023-03-17T12:20:58.994Z,34.27
2023-03-17T12:23:49.793Z,34.15
2023-03-17T12:26:32.092Z,34.60
2023-03-17T12:29:15.591Z,34.01
2023-03-17T12:32:05.784Z,32.89
2023-03-17T12:34:44.779Z,33.15
2023-03-17T12:37:13.072Z,33.01
2023-03-17T12:39:41.345Z,32.74
2023-03-17T12:42:16.696Z,33.15
2023-03-17T12:44:48.001Z,33.80
2023-03-17T12:47:43.125Z,34.35
2023-03-17T12:50:32.934Z,34.70
2023-03-17T12:53:20.122Z,34.24
2023-03-17T12:55:50.129Z,32.70
2023-03-17T12:58:29.650Z,32.25
2023-03-17T13:01:07.253Z,32.39
2023-03-17T13:03:37.269Z,32.34
2023-03-17T13:06:07.688Z,31.51
2023-03-17T13:08:38.160Z,31.82
2023-03-17T13:11:37.561Z,31.72
2023-03-17T13:14:34.182Z,31.37
2023-03-17T13:17:17.942Z,29.46
2023-03-17T13:20:14.571Z,30.37
2023-03-17T13:23:11.520Z,29.35
2023-03-17T13:25:40.105Z,29.30
2023-03-17T13:28:13.939Z,28.78
2023-03-17T13:30:49.680Z,28.49
2023-03-17T13:33:25.037Z,29.21
2023-03-17T13:36:09.523Z,29.57
2023-03-17T13:38:52.515Z,29.32
2023-03-17T13:41:40.772Z,29.35
2023-03-17T13:44:43.358Z,29.95
2023-03-17T13:47:17.436Z,29.62
2023-03-17T13:49:51.484Z,29.99
2023-03-17T13:52:39.626Z,30.39
2023-03-17T13:55:23.859Z,30.21
2023-03-17T13:58:11.704Z,31.03
2023-03-17T14:00:41.861Z,30.83
2023-03-17T14:03:48.980Z,30.65
2023-03-17T14:06:18.890Z,30.54
2023-03-17T14:09:00.011Z,31.26
2023-03-17T14:11:40.681Z,31.35
2023-03-17T14:14:31.473Z,31.61
2023-03-17T14:17:12.249Z,31.23
2023-03-17T14:19:41.934Z,31.08
2023-03-17T14:22:21.553Z,31.29
2023-03-17T14:24:56.180Z,30.65
2023-03-17T14:27:24.299Z,31.36
2023-03-17T14:29:52.517Z,31.97
2023-03-17T14:32:21.717Z,32.26
2023-03-17T14:34:57.707Z,32.41
2023-03-17T14:37:26.133Z,32.54
2023-03-17T14:39:55.771Z,33.26
2023-03-17T14:42:31.568Z,33.12
2023-03-17T14:45:07.455Z,33.13
2023-03-17T14:47:38.970Z,33.69
2023-03-17T14:50:31.059Z,34.27
2023-03-17T14:52:59.886Z,34.50
2023-03-17T14:55:43.329Z,34.83
2023-03-17T14:58:28.918Z,34.75
2023-03-17T15:01:02.653Z,35.09
2023-03-17T15:03:31.895Z,34.91
2023-03-17T15:06:28.117Z,35.10
2023-03-17T15:09:00.682Z,35.03
2023-03-17T15:11:38.277Z,35.24
2023-03-17T15:14:22.152Z,35.64
2023-03-17T15:16:51.506Z,35.49
2023-03-17T15:19:21.429Z,35.51
2023-03-17T15:21:49.690Z,35.60
2023-03-17T15:24:39.745Z,35.99
2023-03-17T15:27:14.979Z,35.74
2023-03-17T15:29:43.195Z,35.80
2023-03-17T15:32:15.416Z,35.85
2023-03-17T15:34:43.579Z,36.11
2023-03-17T15:37:32.494Z,35.79
2023-03-17T15:40:01.420Z,36.20
2023-03-17T15:42:31.215Z,36.64
2023-03-17T15:45:02.861Z,36.60
2023-03-17T15:47:37.071Z,36.47
2023-03-17T15:50:16.214Z,36.33
2023-03-17T15:52:44.785Z,36.57
2023-03-17T15:55:19.319Z,37.07
2023-03-17T15:57:54.748Z,37.40
2023-03-17T16:00:24.991Z,37.73
2023-03-17T16:02:56.339Z,37.87
2023-03-17T16:05:26.702Z,38.44
2023-03-17T16:07:55.507Z,38.57
2023-03-17T16:10:28.331Z,38.75
2023-03-17T16:12:56.600Z,38.94
2023-03-17T16:15:26.610Z,39.22
2023-03-17T16:17:55.872Z,39.47
2023-03-17T16:20:36.109Z,39.56
2023-03-17T16:23:14.883Z,39.87
2023-03-17T16:25:43.291Z,40.35
2023-03-17T16:28:16.951Z,40.18
2023-03-17T16:30:46.150Z,40.56
2023-03-17T16:33:22.638Z,41.27
2023-03-17T16:35:52.613Z,41.31
2023-03-17T16:38:22.658Z,41.59
2023-03-17T16:40:55.314Z,41.56
2023-03-17T16:43:26.567Z,41.99
2023-03-17T16:45:56.516Z,41.93
2023-03-17T16:48:24.963Z,42.17
2023-03-17T16:50:53.347Z,42.16
2023-03-17T16:53:21.604Z,42.06
2023-03-17T16:55:50.304Z,42.40
2023-03-17T16:58:26.332Z,42.41
2023-03-17T17:00:57.646Z,42.88
2023-03-17T17:03:25.989Z,42.35
2023-03-17T17:05:54.176Z,42.66
2023-03-17T17:08:22.737Z,42.47
2023-03-17T17:10:51.559Z,42.43
2023-03-17T17:13:19.833Z,42.57
2023-03-17T17:15:48.040Z,42.50
2023-03-17T17:18:27.200Z,42.75
2023-03-17T17:20:57.113Z,42.61
2023-03-17T17:23:26.829Z,42.91
2023-03-17T17:25:55.011Z,43.11
2023-03-17T17:28:23.796Z,43.15
2023-03-17T17:30:52.251Z,43.34
2023-03-17T17:33:20.461Z,43.43
2023-03-17T17:35:48.876Z,43.93
2023-03-17T17:38:26.829Z,44.17
2023-03-17T17:41:02.485Z,44.78
2023-03-17T17:43:30.614Z,45.32
2023-03-17T17:45:58.566Z,45.76
2023-03-17T17:48:27.118Z,46.34
2023-03-17T17:50:56.203Z,46.77
2023-03-17T17:53:24.420Z,47.11
2023-03-17T17:55:52.533Z,47.65
2023-03-17T17:58:24.517Z,47.87
2023-03-17T18:00:55.726Z,48.36
2023-03-17T18:03:25.432Z,48.51
2023-03-17T18:05:54.334Z,48.62
2023-03-17T18:08:23.130Z,48.83
2023-03-17T18:10:52.277Z,49.02
2023-03-17T18:13:20.557Z,49.12
2023-03-17T18:15:49.666Z,49.28
2023-03-17T18:18:17.657Z,49.17
2023-03-17T18:20:45.661Z,49.19
2023-03-17T18:23:13.722Z,49.05
2023-03-17T18:25:41.724Z,49.06
2023-03-17T18:28:09.794Z,49.02
2023-03-17T18:30:38.383Z,48.95
2023-03-17T18:33:09.480Z,49.02
2023-03-17T18:35:37.638Z,49.12
2023-03-17T18:38:05.805Z,49.27
2023-03-17T18:40:34.208Z,49.35
2023-03-17T18:43:02.450Z,49.22
2023-03-17T18:45:30.386Z,49.15
2023-03-17T18:47:58.274Z,49.17
2023-03-17T18:50:26.619Z,49.15
2023-03-17T18:52:55.878Z,48.94
2023-03-17T18:55:23.815Z,48.96
2023-03-17T18:57:52.192Z,48.85
2023-03-17T19:00:20.436Z,48.85
2023-03-17T19:02:48.558Z,48.74
2023-03-17T19:05:16.674Z,48.80
2023-03-17T19:07:44.747Z,48.69
2023-03-17T19:10:12.775Z,48.57
2023-03-17T19:12:41.197Z,48.56
2023-03-17T19:15:10.791Z,48.76
2023-03-17T19:17:39.568Z,48.77
2023-03-17T19:20:08.285Z,48.66
2023-03-17T19:22:36.383Z,48.45
2023-03-17T19:25:04.531Z,48.39
2023-03-17T19:27:33.438Z,48.43
2023-03-17T19:30:01.765Z,48.33
2023-03-17T19:32:29.867Z,48.29
2023-03-17T19:34:57.907Z,48.05
2023-03-17T19:37:26.215Z,48.06
2023-03-17T19:39:54.455Z,47.84
2023-03-17T19:42:22.467Z,47.62
2023-03-17T19:44:50.646Z,47.57
2023-03-17T19:47:18.665Z,47.74
2023-03-17T19:49:47.286Z,47.57
2023-03-17T19:52:15.521Z,47.53
2023-03-17T19:54:46.137Z,47.67
2023-03-17T19:57:14.577Z,47.30
2023-03-17T19:59:43.121Z,47.38
2023-03-17T20:02:13.206Z,47.23
2023-03-17T20:04:41.480Z,47.13
2023-03-17T20:07:09.865Z,47.30
2023-03-17T20:09:38.007Z,47.51
2023-03-17T20:12:06.219Z,47.64
2023-03-17T20:14:34.654Z,47.45
2023-03-17T20:17:02.855Z,47.27
2023-03-17T20:19:31.121Z,47.42
2023-03-17T20:21:59.050Z,47.45
2023-03-17T20:24:29.274Z,47.55
2023-03-17T20:26:59.506Z,47.58
2023-03-17T20:29:28.417Z,47.61
2023-03-17T20:31:56.492Z,47.17
2023-03-17T20:34:24.621Z,47.18
2023-03-17T20:36:52.951Z,47.22
2023-03-17T20:39:21.755Z,47.28
2023-03-17T20:41:50.946Z,47.42
2023-03-17T20:44:19.095Z,47.09
2023-03-17T20:46:48.324Z,47.18
2023-03-17T20:49:17.414Z,47.13
2023-03-17T20:51:46.415Z,46.98
2023-03-17T20:54:14.764Z,46.94
2023-03-17T20:56:43.017Z,46.95
2023-03-17T20:59:19.763Z,47.09
2023-03-17T21:02:18.687Z,47.38
2023-03-17T21:08:34.119Z,47.31
2023-03-17T21:11:02.901Z,47.29
2023-03-17T21:13:31.695Z,47.70
2023-03-17T21:16:00.801Z,47.75
2023-03-17T21:18:29.734Z,47.68
2023-03-17T21:20:57.886Z,47.79
2023-03-17T21:23:27.485Z,47.90
2023-03-17T21:25:56.272Z,48.14
2023-03-17T21:28:24.288Z,48.06
2023-03-17T21:30:52.289Z,48.25
2023-03-17T21:33:21.608Z,48.20
2023-03-17T21:35:50.001Z,48.30
2023-03-17T21:38:18.050Z,48.54
2023-03-17T21:40:46.094Z,48.63
2023-03-17T21:43:15.085Z,48.91
2023-03-17T21:45:44.758Z,48.91
2023-03-17T21:48:12.967Z,49.30
2023-03-17T21:50:41.459Z,49.14
2023-03-17T21:53:10.401Z,49.26
2023-03-17T21:55:38.518Z,49.39
2023-03-17T21:58:08.360Z,49.50
2023-03-17T22:00:45.091Z,49.58
2023-03-17T22:03:14.086Z,49.65
2023-03-17T22:05:42.542Z,49.97
2023-03-17T22:08:11.365Z,50.02
2023-03-17T22:10:40.254Z,50.27
2023-03-17T22:13:08.643Z,50.29
2023-03-17T22:15:37.250Z,50.57
2023-03-17T22:18:06.251Z,50.79
2023-03-17T22:20:34.769Z,51.01
2023-03-17T22:23:03.407Z,51.16
2023-03-17T22:25:31.479Z,51.29
2023-03-17T22:27:59.756Z,51.56
2023-03-17T22:30:27.797Z,51.60
2023-03-17T22:32:55.848Z,51.90
2023-03-17T22:35:25.177Z,51.87
2023-03-17T22:37:53.169Z,52.21
2023-03-17T22:40:21.631Z,52.17
2023-03-17T22:42:49.616Z,52.34
2023-03-17T22:45:17.840Z,52.34
2023-03-17T22:47:46.250Z,52.49
2023-03-17T22:50:14.671Z,52.54
2023-03-17T22:52:42.776Z,52.57
2023-03-17T22:55:10.893Z,52.89
2023-03-17T22:57:41.740Z,52.97
2023-03-17T23:00:19.469Z,52.91
2023-03-17T23:02:57.785Z,53.01
2023-03-17T23:05:32.172Z,53.06
2023-03-17T23:08:05.700Z,52.87
2023-03-17T23:10:33.989Z,53.00
2023-03-17T23:13:01.950Z,53.38
2023-03-17T23:15:30.062Z,53.42
2023-03-17T23:17:58.851Z,53.47
2023-03-17T23:20:26.913Z,53.81
2023-03-17T23:22:58.292Z,53.94
2023-03-17T23:25:26.710Z,54.24
2023-03-17T23:27:54.777Z,54.36
2023-03-17T23:30:22.784Z,54.56
2023-03-17T23:32:50.822Z,54.99
2023-03-17T23:35:19.657Z,54.90
2023-03-17T23:37:47.588Z,55.17
2023-03-17T23:40:17.421Z,55.48
2023-03-17T23:42:49.168Z,55.43
2023-03-17T23:45:18.215Z,55.61
2023-03-17T23:47:46.905Z,55.70
2023-03-17T23:50:15.998Z,55.67
2023-03-17T23:52:44.110Z,56.05
2023-03-17T23:55:12.295Z,55.97
2023-03-17T23:57:40.255Z,56.05
